Time;durP1;ratioP1;P1;durP2;ratioP2;P2;SDS_P1;SDS_P2;PMS_P1;PMS_P2;Temp;Humidity;BMP_temperature;BMP_pressure;BME280_temperature;BME280_humidity;BME280_pressure;Samples;Min_cycle;Max_cycle;Signal;HPM_P1;HPM_P2
2023/09/24 00:02:19;;;;;;;12.63;3.25;;;14.80;99.90;;;;;;4992390;28;20267;-76
2023/09/24 00:04:46;;;;;;;10.95;2.92;;;15.40;99.90;;;;;;4994629;28;20167;-77
2023/09/24 00:07:14;;;;;;;9.48;2.65;;;15.50;99.90;;;;;;4994445;28;20179;-75
2023/09/24 00:09:40;;;;;;;12.35;3.08;;;15.40;99.90;;;;;;4994609;28;20183;-77
2023/09/24 00:12:05;;;;;;;9.15;2.55;;;15.50;99.90;;;;;;4994560;28;20171;-75
2023/09/24 00:14:31;;;;;;;8.95;2.80;;;15.50;99.90;;;;;;4994519;28;20206;-76
2023/09/24 00:16:57;;;;;;;13.52;3.47;;;15.70;99.90;;;;;;4993115;28;20187;-76
2023/09/24 00:19:24;;;;;;;9.30;2.60;;;15.70;99.90;;;;;;4994377;28;20186;-76
2023/09/24 00:21:50;;;;;;;13.02;3.08;;;15.50;99.90;;;;;;4994498;28;20646;-76
2023/09/24 00:24:17;;;;;;;10.77;2.78;;;15.80;99.90;;;;;;4993029;28;20199;-76
2023/09/24 00:26:43;;;;;;;9.98;2.90;;;15.70;99.90;;;;;;4994283;28;20191;-76
2023/09/24 00:29:10;;;;;;;12.07;3.13;;;15.80;99.90;;;;;;4994657;28;20187;-76
2023/09/24 00:31:35;;;;;;;23.45;3.72;;;15.70;99.90;;;;;;4994095;28;20175;-76
2023/09/24 00:34:02;;;;;;;11.00;2.95;;;15.90;99.90;;;;;;4994001;28;20180;-76
2023/09/24 00:36:27;;;;;;;13.70;3.30;;;15.80;99.90;;;;;;4994127;28;20295;-77
2023/09/24 00:38:53;;;;;;;9.65;2.97;;;15.90;99.90;;;;;;4994014;28;20199;-77
2023/09/24 00:41:18;;;;;;;8.48;3.33;;;15.80;99.90;;;;;;4993775;28;20223;-76
2023/09/24 00:43:44;;;;;;;10.80;3.30;;;15.80;99.90;;;;;;4993950;28;20175;-76
2023/09/24 00:46:11;;;;;;;11.18;2.75;;;15.80;99.90;;;;;;4994122;28;20668;-76
2023/09/24 00:48:38;;;;;;;14.77;2.67;;;16.00;99.90;;;;;;4992710;28;20203;-77
2023/09/24 00:51:19;;;;;;;11.85;2.47;;;15.90;99.90;;;;;;4993780;28;20645;-74
2023/09/24 00:53:47;;;;;;;13.77;2.67;;;15.90;99.90;;;;;;4993738;28;20641;-76
2023/09/24 00:56:14;;;;;;;17.15;6.18;;;15.80;99.90;;;;;;4993837;28;20207;-77
2023/09/24 00:58:47;;;;;;;13.40;3.60;;;15.90;99.90;;;;;;4992492;28;20269;-77
2023/09/24 01:01:13;;;;;;;13.45;2.88;;;15.90;99.90;;;;;;4993688;28;20215;-77
2023/09/24 01:03:40;;;;;;;8.45;2.63;;;15.80;99.90;;;;;;4994161;28;20286;-76
2023/09/24 01:06:06;;;;;;;13.50;2.63;;;15.80;99.90;;;;;;4993747;28;20190;-75
2023/09/24 01:08:33;;;;;;;14.05;4.90;;;;;;;;;;4992417;28;20527;-77
2023/09/24 01:11:00;;;;;;;9.55;3.03;;;15.90;99.90;;;;;;4993595;28;20186;-77
2023/09/24 01:13:39;;;;;;;12.32;4.63;;;15.90;99.90;;;;;;4992249;28;20646;-77
2023/09/24 01:16:08;;;;;;;11.60;3.38;;;;;;;;;;4995473;28;20194;-77
2023/09/24 01:18:39;;;;;;;13.45;3.80;;;16.00;99.90;;;;;;5004653;28;20704;-77
2023/09/24 01:21:16;;;;;;;10.45;2.90;;;16.20;99.90;;;;;;5000510;28;20272;-77
2023/09/24 01:23:45;;;;;;;12.77;2.47;;;16.10;99.90;;;;;;4994597;28;20313;-77
2023/09/24 01:26:12;;;;;;;11.43;2.38;;;16.10;99.90;;;;;;4993710;28;20203;-78
2023/09/24 01:28:39;;;;;;;10.95;2.33;;;;;;;;;;4993255;28;20179;-77
2023/09/24 01:31:05;;;;;;;5.93;2.20;;;16.30;99.90;;;;;;4993044;28;20194;-77
2023/09/24 01:33:36;;;;;;;6.63;1.63;;;;;;;;;;4992778;28;20645;-76
2023/09/24 01:36:04;;;;;;;11.73;1.83;;;;;;;;;;4992989;28;20170;-77
2023/09/24 01:38:30;;;;;;;6.57;1.85;;;16.20;99.90;;;;;;4992922;28;20214;-77
2023/09/24 01:40:55;;;;;;;6.70;2.00;;;16.10;99.90;;;;;;4992451;28;20313;-77
2023/09/24 01:43:21;;;;;;;10.55;1.95;;;16.10;99.90;;;;;;4992697;28;20693;-77
2023/09/24 01:45:47;;;;;;;8.65;1.98;;;;;;;;;;4991446;28;20182;-76
2023/09/24 01:48:13;;;;;;;8.48;1.75;;;16.20;99.90;;;;;;4992686;28;20666;-76
2023/09/24 01:50:41;;;;;;;7.35;1.73;;;;;;;;;;4992507;28;20654;-77
2023/09/24 01:53:08;;;;;;;5.93;1.42;;;16.30;99.90;;;;;;4992532;28;20194;-77
2023/09/24 01:55:38;;;;;;;10.02;1.50;;;;;;;;;;4990021;28;20277;-77
2023/09/24 01:58:04;;;;;;;9.02;1.15;;;16.10;99.90;;;;;;4989750;28;20230;-78
2023/09/24 02:00:30;;;;;;;8.98;1.33;;;;;;;;;;4991261;28;20219;-76
2023/09/24 02:03:00;;;;;;;9.98;1.90;;;15.90;99.90;;;;;;4991410;28;20199;-77
2023/09/24 02:05:36;;;;;;;5.07;1.25;;;15.90;99.90;;;;;;4992358;28;20519;-77
2023/09/24 02:08:06;;;;;;;6.72;1.67;;;15.80;99.90;;;;;;4992208;28;20163;-77
2023/09/24 02:10:33;;;;;;;6.30;1.60;;;15.70;99.90;;;;;;4992586;28;20361;-77
2023/09/24 02:13:00;;;;;;;9.43;1.95;;;15.80;99.90;;;;;;4992395;28;20179;-77
2023/09/24 02:15:26;;;;;;;3.58;1.02;;;15.80;99.90;;;;;;4992241;28;20175;-76
2023/09/24 02:17:51;;;;;;;4.97;1.40;;;15.90;99.90;;;;;;4992285;28;20700;-77
2023/09/24 02:20:23;;;;;;;4.80;1.00;;;15.90;99.90;;;;;;4991994;28;20234;-77
2023/09/24 02:22:50;;;;;;;2.78;1.00;;;15.90;99.90;;;;;;4991946;28;20254;-76
2023/09/24 02:25:20;;;;;;;2.90;0.85;;;16.10;99.90;;;;;;4991543;28;20545;-77
2023/09/24 02:27:49;;;;;;;4.22;1.35;;;15.90;99.90;;;;;;4992133;28;20266;-78
2023/09/24 02:30:15;;;;;;;5.65;1.30;;;15.90;99.90;;;;;;4991778;28;20242;-76
2023/09/24 02:32:42;;;;;;;3.67;0.93;;;15.80;99.90;;;;;;4991959;28;20194;-77
2023/09/24 02:35:11;;;;;;;6.13;1.27;;;16.00;99.90;;;;;;4991989;28;20566;-76
2023/09/24 02:37:44;;;;;;;5.75;1.60;;;15.90;99.90;;;;;;4992057;28;20171;-76
2023/09/24 02:40:15;;;;;;;5.00;1.10;;;16.00;99.90;;;;;;4990637;28;20215;-76
2023/09/24 02:42:46;;;;;;;7.40;1.40;;;16.10;99.90;;;;;;4991664;28;20191;-76
2023/09/24 02:45:12;;;;;;;5.53;1.33;;;16.30;99.90;;;;;;4990145;28;20179;-76
2023/09/24 02:47:38;;;;;;;4.97;1.48;;;16.00;99.90;;;;;;4991578;28;20179;-76
2023/09/24 02:50:08;;;;;;;5.35;1.00;;;15.80;99.90;;;;;;4991459;28;20183;-76
2023/09/24 02:52:35;;;;;;;2.50;0.75;;;16.10;99.90;;;;;;4991698;28;20167;-77
2023/09/24 02:55:01;;;;;;;5.53;1.27;;;16.10;99.90;;;;;;4991453;28;20167;-76
2023/09/24 02:57:27;;;;;;;5.32;1.02;;;16.00;99.90;;;;;;4991515;28;20167;-77
2023/09/24 02:59:53;;;;;;;4.15;0.95;;;16.20;99.90;;;;;;4991230;28;20211;-76
2023/09/24 03:02:18;;;;;;;3.40;1.05;;;16.20;99.90;;;;;;4990058;28;20573;-76
2023/09/24 03:04:44;;;;;;;2.58;0.73;;;16.40;99.90;;;;;;4991667;28;20168;-76
2023/09/24 03:07:10;;;;;;;6.85;1.50;;;16.30;99.90;;;;;;4991469;28;20634;-77
2023/09/24 03:09:36;;;;;;;4.30;0.88;;;16.40;99.90;;;;;;4991480;28;20218;-76
2023/09/24 03:12:01;;;;;;;4.60;1.65;;;16.30;99.90;;;;;;4990081;28;20594;-77
2023/09/24 03:14:27;;;;;;;5.30;0.80;;;16.40;99.90;;;;;;4991518;28;20191;-77
2023/09/24 03:16:53;;;;;;;4.90;1.13;;;16.30;99.90;;;;;;4991357;28;20266;-77
2023/09/24 03:19:19;;;;;;;7.15;1.77;;;;;;;;;;4991443;28;20167;-77
2023/09/24 03:21:45;;;;;;;5.80;1.45;;;16.50;99.90;;;;;;4991500;28;20180;-76
2023/09/24 03:24:14;;;;;;;4.85;1.20;;;16.50;99.90;;;;;;4991388;28;20198;-76
2023/09/24 03:26:40;;;;;;;5.78;1.25;;;16.70;99.90;;;;;;4991386;28;20163;-75
2023/09/24 03:29:06;;;;;;;4.70;1.10;;;;;;;;;;4991154;28;20345;-76
2023/09/24 03:31:33;;;;;;;4.72;1.20;;;;;;;;;;4991646;28;20175;-77
2023/09/24 03:33:59;;;;;;;4.20;1.38;;;16.70;99.90;;;;;;4991376;28;20198;-77
2023/09/24 03:36:25;;;;;;;8.52;1.38;;;16.70;99.90;;;;;;4992896;28;20167;-76
2023/09/24 03:38:51;;;;;;;9.68;1.58;;;;;;;;;;4995194;28;20172;-76
2023/09/24 03:41:17;;;;;;;7.22;1.80;;;16.80;99.90;;;;;;4994910;28;20238;-76
2023/09/24 03:43:43;;;;;;;4.93;1.35;;;16.70;99.90;;;;;;4994982;28;20645;-77
2023/09/24 03:46:11;;;;;;;6.13;1.63;;;16.60;99.90;;;;;;4995276;28;20194;-77
2023/09/24 03:48:37;;;;;;;6.22;1.48;;;;;;;;;;4993623;28;20227;-76
2023/09/24 03:51:04;;;;;;;9.32;1.17;;;16.90;99.90;;;;;;4994992;28;20646;-77
2023/09/24 03:53:29;;;;;;;7.07;1.08;;;17.00;99.90;;;;;;4994884;28;20178;-76
2023/09/24 03:55:55;;;;;;;6.40;1.58;;;;;;;;;;4993507;28;20175;-76
2023/09/24 03:58:21;;;;;;;10.30;1.63;;;16.90;99.90;;;;;;4994539;28;20167;-76
2023/09/24 04:00:47;;;;;;;7.18;1.45;;;;;;;;;;4994709;28;20210;-76
2023/09/24 04:03:14;;;;;;;7.35;1.67;;;17.00;99.90;;;;;;4994838;28;20234;-77
2023/09/24 04:05:39;;;;;;;13.20;2.10;;;17.20;99.90;;;;;;4994687;28;20179;-76
2023/09/24 04:08:05;;;;;;;8.48;1.25;;;17.20;99.90;;;;;;4994647;28;20174;-76
2023/09/24 04:10:32;;;;;;;7.57;1.45;;;17.00;99.90;;;;;;4993205;28;20179;-75
2023/09/24 04:12:59;;;;;;;8.07;1.65;;;17.10;99.90;;;;;;4994491;28;20164;-77
2023/09/24 04:15:27;;;;;;;11.13;1.33;;;17.30;99.90;;;;;;4994351;28;20546;-78
2023/09/24 04:17:55;;;;;;;6.00;1.67;;;;;;;;;;4994371;28;20221;-77
2023/09/24 04:20:21;;;;;;;7.15;1.38;;;17.30;99.90;;;;;;4994318;28;20225;-76
2023/09/24 04:22:47;;;;;;;11.15;1.40;;;17.30;99.90;;;;;;4994322;28;20702;-76
2023/09/24 04:25:21;;;;;;;5.50;1.50;;;17.40;99.90;;;;;;4994080;28;20267;-76
2023/09/24 04:27:48;;;;;;;6.63;1.27;;;17.30;99.90;;;;;;4994186;28;20641;-78
2023/09/24 04:30:17;;;;;;;11.50;2.25;;;;;;;;;;4994333;28;20179;-76
2023/09/24 04:32:47;;;;;;;7.28;1.40;;;17.30;99.90;;;;;;4994158;28;20186;-75
2023/09/24 04:35:12;;;;;;;10.75;1.70;;;17.60;99.90;;;;;;4994206;28;20258;-77
2023/09/24 04:37:39;;;;;;;6.43;0.98;;;17.50;99.90;;;;;;4994082;28;20721;-75
2023/09/24 04:40:08;;;;;;;7.25;1.27;;;17.40;99.90;;;;;;4993780;28;20219;-75
2023/09/24 04:42:34;;;;;;;5.53;1.05;;;17.50;99.90;;;;;;4993773;28;20219;-76
2023/09/24 04:45:00;;;;;;;9.05;1.20;;;17.70;99.90;;;;;;4994139;28;20190;-77
2023/09/24 04:47:26;;;;;;;9.32;1.08;;;17.50;99.90;;;;;;4993313;28;20217;-76
2023/09/24 04:49:52;;;;;;;5.45;1.05;;;17.30;99.90;;;;;;4992628;28;20539;-76
2023/09/24 04:52:18;;;;;;;5.25;1.27;;;17.50;99.90;;;;;;4993751;28;20198;-76
2023/09/24 04:54:44;;;;;;;7.13;1.27;;;;;;;;;;4993759;28;20175;-76
2023/09/24 04:57:10;;;;;;;6.07;1.17;;;17.40;99.90;;;;;;4992384;28;20171;-76
2023/09/24 04:59:35;;;;;;;7.25;1.58;;;17.60;99.90;;;;;;4992053;28;20266;-76
2023/09/24 05:02:01;;;;;;;8.00;1.17;;;17.50;99.90;;;;;;4992237;28;20187;-75
2023/09/24 05:04:27;;;;;;;7.93;1.50;;;17.40;99.90;;;;;;4993635;28;20210;-75
2023/09/24 05:06:54;;;;;;;7.18;1.27;;;17.50;99.90;;;;;;4993079;28;20637;-77
2023/09/24 05:09:20;;;;;;;9.18;1.38;;;17.40;99.90;;;;;;4993223;28;20183;-77
2023/09/24 05:11:46;;;;;;;5.03;0.90;;;16.90;99.90;;;;;;4991244;28;20194;-75
2023/09/24 05:14:12;;;;;;;7.50;1.00;;;;;;;;;;4991815;28;20183;-75
2023/09/24 05:16:38;;;;;;;5.60;0.93;;;17.40;99.90;;;;;;4993107;28;20203;-75
2023/09/24 05:19:05;;;;;;;5.30;1.30;;;17.50;99.90;;;;;;4993018;28;20259;-77
2023/09/24 05:21:31;;;;;;;4.82;0.70;;;17.40;99.90;;;;;;4991676;28;20222;-75
2023/09/24 05:23:57;;;;;;;5.47;0.80;;;17.30;99.90;;;;;;4992933;28;20166;-76
2023/09/24 05:26:23;;;;;;;3.65;0.65;;;;;;;;;;4992886;28;20167;-77
2023/09/24 05:28:49;;;;;;;1.85;0.50;;;17.40;99.90;;;;;;4992676;28;20183;-76
2023/09/24 05:31:16;;;;;;;3.30;0.57;;;;;;;;;;4992815;28;20697;-77
2023/09/24 05:33:44;;;;;;;4.18;0.98;;;17.50;99.90;;;;;;4993095;28;20197;-75
2023/09/24 05:36:10;;;;;;;3.10;0.57;;;17.40;99.90;;;;;;4992976;28;20171;-76
2023/09/24 05:38:37;;;;;;;3.08;0.60;;;;;;;;;;4992721;28;20267;-75
2023/09/24 05:41:02;;;;;;;3.35;0.50;;;17.30;99.90;;;;;;4992695;28;20226;-75
2023/09/24 05:43:28;;;;;;;2.97;0.63;;;17.40;99.90;;;;;;4991474;28;20262;-75
2023/09/24 05:45:54;;;;;;;1.90;0.47;;;17.20;99.90;;;;;;4992643;28;20174;-75
2023/09/24 05:48:19;;;;;;;2.30;0.40;;;17.30;99.90;;;;;;4992844;28;20260;-75
2023/09/24 05:50:45;;;;;;;2.88;0.90;;;17.40;99.90;;;;;;4992484;28;20183;-77
2023/09/24 05:53:12;;;;;;;2.72;0.50;;;17.30;99.90;;;;;;4992704;28;20163;-77
2023/09/24 05:55:38;;;;;;;2.88;0.50;;;17.10;99.90;;;;;;4992565;28;20669;-76
2023/09/24 05:58:05;;;;;;;2.03;0.60;;;17.20;99.90;;;;;;4992957;28;20164;-76
2023/09/24 06:00:33;;;;;;;0.70;0.30;;;17.20;99.90;;;;;;4990889;28;20708;-75
2023/09/24 06:02:59;;;;;;;1.85;0.40;;;17.20;99.90;;;;;;4993084;28;20183;-76
2023/09/24 06:05:25;;;;;;;2.28;0.43;;;17.10;99.90;;;;;;4993371;28;20824;-74
2023/09/24 06:07:51;;;;;;;2.88;0.60;;;;;;;;;;4992502;28;20654;-76
2023/09/24 06:10:16;;;;;;;0.93;0.40;;;17.00;99.90;;;;;;4992264;28;20291;-76
2023/09/24 06:12:42;;;;;;;2.33;0.50;;;;;;;;;;4992318;28;20176;-76
2023/09/24 06:15:10;;;;;;;2.17;0.40;;;17.30;99.90;;;;;;4992190;28;20168;-76
2023/09/24 06:17:36;;;;;;;3.05;0.70;;;17.20;99.90;;;;;;4992304;28;20717;-75
2023/09/24 06:20:03;;;;;;;1.35;0.30;;;17.20;99.90;;;;;;4992008;28;20297;-75
2023/09/24 06:22:28;;;;;;;0.80;0.40;;;17.20;99.90;;;;;;4992225;28;20171;-76
2023/09/24 06:24:54;;;;;;;5.93;1.10;;;17.10;99.90;;;;;;4992092;28;20610;-76
2023/09/24 06:27:21;;;;;;;2.90;0.70;;;17.10;99.90;;;;;;4992019;28;20178;-76
2023/09/24 06:29:47;;;;;;;4.03;0.68;;;17.30;99.90;;;;;;4992011;28;20175;-76
2023/09/24 06:32:13;;;;;;;1.75;0.35;;;17.20;99.90;;;;;;4990620;28;20226;-78
2023/09/24 06:34:39;;;;;;;3.30;0.63;;;17.20;99.90;;;;;;4991863;28;20175;-77
2023/09/24 06:37:04;;;;;;;4.55;0.70;;;17.50;99.90;;;;;;4992086;28;20266;-77
2023/09/24 06:39:31;;;;;;;3.85;0.73;;;;;;;;;;4990512;28;20248;-78
2023/09/24 06:41:59;;;;;;;2.15;0.70;;;17.40;99.90;;;;;;4991719;28;20223;-78
2023/09/24 06:44:25;;;;;;;2.88;0.55;;;17.50;99.90;;;;;;4991748;28;20167;-77
2023/09/24 06:46:51;;;;;;;6.13;0.98;;;17.50;99.90;;;;;;4991795;28;20167;-77
2023/09/24 06:49:17;;;;;;;2.90;1.00;;;17.40;99.90;;;;;;4991713;28;20544;-77
2023/09/24 06:51:43;;;;;;;5.28;1.05;;;;;;;;;;4991675;28;20193;-78
2023/09/24 06:54:08;;;;;;;7.20;0.68;;;17.80;99.90;;;;;;4991841;28;20167;-75
2023/09/24 06:56:34;;;;;;;3.05;0.70;;;17.50;99.90;;;;;;4991709;28;20281;-77
2023/09/24 06:59:00;;;;;;;3.67;0.80;;;17.50;99.90;;;;;;4991652;28;20174;-77
2023/09/24 07:01:25;;;;;;;4.13;0.80;;;17.30;99.90;;;;;;4991654;28;20330;-77
2023/09/24 07:03:51;;;;;;;3.38;0.80;;;17.60;99.90;;;;;;4991537;28;20630;-77
2023/09/24 07:06:17;;;;;;;3.13;0.68;;;17.20;99.90;;;;;;4991618;28;20202;-77
2023/09/24 07:08:43;;;;;;;4.20;1.00;;;17.70;99.90;;;;;;4991650;28;20564;-76
2023/09/24 07:11:28;;;;;;;2.85;0.95;;;18.30;99.90;;;;;;4992912;28;20258;-77
2023/09/24 07:13:55;;;;;;;3.63;0.68;;;17.70;99.90;;;;;;4995625;28;20725;-77
2023/09/24 07:16:24;;;;;;;4.55;0.85;;;17.70;99.90;;;;;;4995532;28;20206;-78
2023/09/24 07:18:51;;;;;;;5.53;1.35;;;17.60;99.90;;;;;;4995544;28;20195;-77
2023/09/24 07:21:21;;;;;;;5.05;1.05;;;17.80;99.90;;;;;;4995436;28;20265;-76
2023/09/24 07:23:49;;;;;;;3.83;0.88;;;17.70;99.90;;;;;;4995416;28;20177;-77
2023/09/24 07:26:14;;;;;;;4.75;0.90;;;17.80;99.90;;;;;;4995377;28;20222;-77
2023/09/24 07:28:41;;;;;;;4.95;1.00;;;17.70;99.90;;;;;;4995129;28;20199;-77
2023/09/24 07:31:19;;;;;;;5.15;0.80;;;17.80;99.90;;;;;;4995480;28;20230;-77
2023/09/24 07:33:45;;;;;;;6.50;1.40;;;17.40;99.90;;;;;;4994075;28;20202;-77
2023/09/24 07:36:12;;;;;;;4.22;1.35;;;17.90;99.90;;;;;;4993819;28;20214;-77
2023/09/24 07:38:39;;;;;;;6.05;1.15;;;18.00;99.90;;;;;;4994844;28;20650;-77
2023/09/24 07:41:07;;;;;;;5.35;0.80;;;18.00;99.90;;;;;;4994650;28;20249;-77
2023/09/24 07:43:41;;;;;;;6.57;1.00;;;18.00;99.90;;;;;;4994679;28;20219;-78
2023/09/24 07:46:11;;;;;;;7.43;1.25;;;17.90;99.90;;;;;;4994688;28;20171;-76
2023/09/24 07:48:37;;;;;;;2.53;0.80;;;18.00;99.90;;;;;;4994559;28;20183;-75
2023/09/24 07:51:03;;;;;;;5.68;1.17;;;17.90;99.90;;;;;;4993172;28;20650;-76
2023/09/24 07:53:28;;;;;;;2.30;0.80;;;17.90;99.90;;;;;;4994945;28;20198;-76
2023/09/24 07:55:58;;;;;;;7.88;1.52;;;17.60;99.90;;;;;;4994743;28;20610;-76
2023/09/24 07:58:24;;;;;;;6.85;1.15;;;18.00;99.90;;;;;;4995529;28;20179;-76
2023/09/24 08:00:52;;;;;;;7.43;1.30;;;17.90;99.90;;;;;;4994653;28;20211;-76
2023/09/24 08:03:18;;;;;;;4.85;1.33;;;;;;;;;;4994530;28;20206;-75
2023/09/24 08:05:44;;;;;;;9.07;1.50;;;18.00;99.90;;;;;;4994486;28;20638;-76
2023/09/24 08:08:10;;;;;;;8.23;1.30;;;;;;;;;;4994271;28;20179;-75
2023/09/24 08:10:36;;;;;;;5.25;1.20;;;18.00;99.90;;;;;;4994432;28;20605;-76
2023/09/24 08:13:04;;;;;;;3.58;1.00;;;18.00;99.90;;;;;;4994237;28;20175;-77
2023/09/24 08:15:30;;;;;;;6.55;1.15;;;18.00;99.90;;;;;;4994603;28;20179;-76
2023/09/24 08:17:56;;;;;;;7.20;1.17;;;;;;;;;;4994261;28;20265;-76
2023/09/24 08:20:22;;;;;;;11.65;1.75;;;17.90;99.90;;;;;;4994262;28;20217;-76
2023/09/24 08:22:48;;;;;;;5.43;1.52;;;;;;;;;;4993173;28;20175;-76
2023/09/24 08:25:14;;;;;;;7.70;1.48;;;17.90;99.90;;;;;;4994410;28;20578;-76
2023/09/24 08:27:40;;;;;;;5.47;1.48;;;;;;;;;;4994025;28;20664;-76
2023/09/24 08:30:06;;;;;;;6.90;1.63;;;18.00;99.90;;;;;;4993748;28;20168;-75
2023/09/24 08:32:32;;;;;;;7.22;1.38;;;18.10;99.90;;;;;;4994255;28;20178;-77
2023/09/24 08:34:58;;;;;;;8.90;2.17;;;18.20;99.90;;;;;;4994044;28;20537;-77
2023/09/24 08:37:24;;;;;;;8.60;1.85;;;;;;;;;;4993876;28;20241;-78
2023/09/24 08:39:50;;;;;;;7.38;1.50;;;;;;;;;;4993929;28;20649;-77
2023/09/24 08:42:19;;;;;;;10.30;2.70;;;18.10;99.90;;;;;;4993765;28;20219;-76
2023/09/24 08:44:53;;;;;;;7.78;1.67;;;18.30;99.90;;;;;;4993914;28;20163;-76
2023/09/24 08:47:20;;;;;;;8.30;1.88;;;18.20;99.90;;;;;;4992531;28;20171;-77
2023/09/24 08:49:48;;;;;;;7.60;1.75;;;16.20;99.90;;;;;;4993666;28;20178;-77
2023/09/24 08:52:16;;;;;;;8.63;1.60;;;18.20;99.90;;;;;;4992481;28;20720;-77
2023/09/24 08:54:42;;;;;;;9.52;1.67;;;18.20;99.90;;;;;;4993522;28;20751;-77
2023/09/24 08:57:08;;;;;;;8.25;1.80;;;;;;;;;;4993605;28;20183;-77
2023/09/24 08:59:34;;;;;;;6.63;1.70;;;18.40;99.90;;;;;;4993405;28;20195;-77
2023/09/24 09:01:59;;;;;;;11.07;1.70;;;18.30;99.90;;;;;;4993691;28;20612;-77
2023/09/24 09:04:25;;;;;;;7.43;1.58;;;18.40;99.90;;;;;;4993385;28;20171;-77
2023/09/24 09:06:52;;;;;;;13.40;2.05;;;18.40;99.90;;;;;;4993461;28;20167;-78
2023/09/24 09:09:27;;;;;;;8.18;1.60;;;18.80;99.90;;;;;;4992272;28;20263;-77
2023/09/24 09:11:52;;;;;;;8.95;1.75;;;18.50;99.90;;;;;;4993389;28;20233;-77
2023/09/24 09:14:37;;;;;;;7.30;1.42;;;18.80;99.90;;;;;;4993327;28;20654;-77
2023/09/24 09:17:03;;;;;;;4.85;1.23;;;18.50;99.90;;;;;;4991788;28;20545;-77
2023/09/24 09:19:49;;;;;;;11.15;1.80;;;18.80;99.90;;;;;;4993284;28;20249;-77
2023/09/24 09:22:17;;;;;;;11.68;1.77;;;18.80;99.90;;;;;;4993121;28;20198;-77
2023/09/24 09:24:42;;;;;;;10.52;1.77;;;18.90;99.90;;;;;;4992082;28;20190;-76
2023/09/24 09:27:08;;;;;;;7.35;2.05;;;18.90;99.90;;;;;;4992943;28;20175;-76
2023/09/24 09:29:34;;;;;;;7.97;1.80;;;19.00;99.90;;;;;;4991517;28;20619;-76
2023/09/24 09:32:00;;;;;;;3.88;1.10;;;;;;;;;;4993231;28;20181;-76
2023/09/24 09:34:27;;;;;;;5.45;1.25;;;19.00;99.90;;;;;;4992885;28;20256;-76
2023/09/24 09:36:53;;;;;;;9.32;1.30;;;19.20;99.90;;;;;;4992784;28;20183;-76
2023/09/24 09:39:18;;;;;;;10.18;1.90;;;18.90;99.90;;;;;;4991540;28;20614;-79
2023/09/24 09:41:47;;;;;;;10.38;1.33;;;18.70;99.90;;;;;;4992691;28;20219;-78
2023/09/24 09:44:15;;;;;;;4.30;0.93;;;18.70;99.90;;;;;;4992760;28;20218;-77
2023/09/24 09:46:45;;;;;;;9.02;1.50;;;18.80;99.90;;;;;;4992659;28;20172;-77
2023/09/24 09:49:12;;;;;;;5.65;1.17;;;18.80;99.90;;;;;;4992769;28;20202;-77
2023/09/24 09:51:39;;;;;;;9.05;1.50;;;18.90;99.90;;;;;;4992648;28;20226;-77
2023/09/24 09:54:06;;;;;;;9.63;1.40;;;19.00;99.90;;;;;;4992677;28;20707;-77
2023/09/24 09:56:35;;;;;;;11.18;1.50;;;19.10;99.90;;;;;;4992407;28;20183;-76
2023/09/24 09:59:02;;;;;;;8.05;1.83;;;17.80;99.90;;;;;;4992425;28;20198;-76
2023/09/24 10:01:28;;;;;;;5.60;1.20;;;19.10;99.90;;;;;;4992429;28;20207;-76
2023/09/24 10:03:55;;;;;;;9.52;1.45;;;19.20;99.90;;;;;;4992454;28;20187;-76
2023/09/24 10:06:22;;;;;;;6.60;1.20;;;19.20;99.90;;;;;;4992560;28;20167;-76
2023/09/24 10:08:49;;;;;;;9.20;1.48;;;19.40;99.90;;;;;;4992326;28;20265;-76
2023/09/24 10:11:34;;;;;;;6.18;1.08;;;19.50;99.90;;;;;;4992357;28;20176;-75
2023/09/24 10:14:05;;;;;;;13.52;1.75;;;19.70;99.90;;;;;;4985199;28;20682;-77
2023/09/24 10:16:38;;;;;;;15.68;1.77;;;20.10;99.90;;;;;;4991013;28;20201;-75
2023/09/24 10:19:09;;;;;;;10.35;1.17;;;19.80;99.90;;;;;;4992264;28;20163;-78
2023/09/24 10:21:39;;;;;;;7.55;1.85;;;19.80;99.90;;;;;;4992126;28;20227;-77
2023/09/24 10:24:13;;;;;;;7.28;1.17;;;20.00;99.90;;;;;;4992166;28;20257;-77
2023/09/24 10:26:52;;;;;;;4.55;1.00;;;20.10;99.90;;;;;;4992372;28;20198;-77
2023/09/24 10:29:46;;;;;;;9.35;1.77;;;19.80;99.90;;;;;;4991997;28;20198;-77
2023/09/24 10:32:17;;;;;;;9.57;1.60;;;19.60;99.90;;;;;;4991992;28;20175;-77
2023/09/24 10:34:54;;;;;;;12.07;1.75;;;19.90;99.90;;;;;;4992022;28;20217;-77
2023/09/24 10:37:34;;;;;;;8.20;1.23;;;19.10;99.90;;;;;;4991904;28;20173;-77
2023/09/24 10:39:59;;;;;;;11.18;1.83;;;19.20;99.90;;;;;;4991958;28;20230;-76
2023/09/24 10:42:26;;;;;;;8.32;1.50;;;19.00;99.90;;;;;;4991560;28;20325;-77
2023/09/24 10:45:07;;;;;;;6.43;1.40;;;19.30;99.90;;;;;;4992087;28;20167;-77
2023/09/24 10:47:37;;;;;;;8.68;1.55;;;;;;;;;;4991436;28;20167;-76
2023/09/24 10:50:12;;;;;;;10.30;1.77;;;19.30;99.90;;;;;;4991819;28;20314;-77
2023/09/24 10:52:59;;;;;;;11.30;2.35;;;19.10;99.90;;;;;;4991844;28;20246;-76
2023/09/24 10:55:30;;;;;;;5.20;1.10;;;19.00;99.90;;;;;;4991779;28;20537;-77
2023/09/24 10:58:11;;;;;;;8.85;1.55;;;19.00;99.90;;;;;;4991990;28;20194;-76
2023/09/24 11:00:38;;;;;;;9.95;1.75;;;19.10;99.90;;;;;;4991663;28;20238;-77
2023/09/24 11:03:05;;;;;;;10.20;2.05;;;19.20;99.90;;;;;;4991567;28;20233;-78
2023/09/24 11:05:49;;;;;;;6.65;1.95;;;19.10;99.90;;;;;;4991499;28;20182;-76
2023/09/24 11:08:17;;;;;;;11.43;1.83;;;19.20;99.90;;;;;;4991628;28;20649;-76
2023/09/24 11:10:48;;;;;;;7.57;1.55;;;19.30;99.90;;;;;;4991413;28;20183;-77
2023/09/24 11:13:14;;;;;;;7.45;1.50;;;19.30;99.90;;;;;;4991656;28;20160;-75
2023/09/24 11:15:40;;;;;;;6.32;1.42;;;19.40;99.90;;;;;;4991626;28;20229;-76
2023/09/24 11:18:06;;;;;;;7.88;1.73;;;19.50;99.90;;;;;;4991474;28;20239;-76
2023/09/24 11:20:34;;;;;;;7.78;1.60;;;19.20;99.90;;;;;;4991224;28;20887;-76
2023/09/24 11:23:02;;;;;;;9.88;1.20;;;19.70;99.90;;;;;;4991592;28;20179;-77
2023/09/24 11:25:30;;;;;;;9.00;1.60;;;19.50;99.90;;;;;;4991664;28;20171;-78
2023/09/24 11:27:59;;;;;;;5.93;1.27;;;19.60;99.90;;;;;;4991320;28;20178;-78
2023/09/24 11:30:46;;;;;;;9.55;1.80;;;19.50;99.90;;;;;;4991248;28;20171;-76
2023/09/24 11:33:20;;;;;;;7.28;1.63;;;19.80;99.90;;;;;;4984672;28;20183;-76
2023/09/24 11:35:47;;;;;;;5.95;1.50;;;20.10;99.90;;;;;;4991314;28;20174;-77
2023/09/24 11:38:13;;;;;;;9.63;1.58;;;19.80;99.90;;;;;;4991697;28;20642;-78
2023/09/24 11:40:40;;;;;;;8.70;1.63;;;19.90;99.90;;;;;;4988783;28;20245;-77
2023/09/24 11:43:15;;;;;;;10.02;1.67;;;19.90;99.90;;;;;;4991449;28;20183;-75
2023/09/24 11:45:49;;;;;;;9.32;1.63;;;19.90;99.90;;;;;;4991372;28;20175;-76
2023/09/24 11:48:19;;;;;;;10.93;1.23;;;20.20;99.90;;;;;;4971875;28;20179;-76
2023/09/24 11:50:47;;;;;;;8.80;1.60;;;20.30;99.90;;;;;;4971700;28;20202;-76
2023/09/24 11:53:14;;;;;;;7.70;1.85;;;20.20;99.90;;;;;;4971672;28;20199;-77
2023/09/24 11:55:41;;;;;;;13.13;1.92;;;20.00;99.90;;;;;;4971627;28;20254;-75
2023/09/24 11:58:07;;;;;;;6.82;1.40;;;19.80;99.90;;;;;;4973603;28;20661;-75
2023/09/24 12:00:38;;;;;;;8.15;1.40;;;19.90;99.90;;;;;;4994741;28;20253;-77
2023/09/24 12:03:04;;;;;;;8.00;1.42;;;19.50;99.90;;;;;;4994626;28;20187;-76
2023/09/24 12:05:31;;;;;;;8.95;1.55;;;19.60;99.90;;;;;;4994479;28;20176;-76
2023/09/24 12:07:57;;;;;;;10.40;1.38;;;;;;;;;;4994456;28;20179;-75
2023/09/24 12:10:23;;;;;;;7.97;1.60;;;19.70;99.90;;;;;;4994404;28;20175;-76
2023/09/24 12:12:51;;;;;;;14.15;2.05;;;19.70;99.90;;;;;;4994260;28;20171;-75
2023/09/24 12:15:18;;;;;;;7.75;1.30;;;19.80;99.90;;;;;;4994368;28;20175;-76
2023/09/24 12:17:45;;;;;;;12.05;1.80;;;19.60;99.90;;;;;;4994251;28;20179;-76
2023/09/24 12:20:12;;;;;;;9.98;1.55;;;19.60;99.90;;;;;;4994274;28;20296;-78
2023/09/24 12:22:42;;;;;;;7.97;1.63;;;20.20;99.90;;;;;;4994206;28;20194;-77
2023/09/24 12:25:10;;;;;;;18.10;1.80;;;20.60;99.90;;;;;;4994349;28;20183;-77
2023/09/24 12:27:36;;;;;;;9.25;1.33;;;20.50;99.90;;;;;;4994049;28;20171;-76
2023/09/24 12:30:04;;;;;;;8.73;1.80;;;;;;;;;;4994061;28;20226;-76
2023/09/24 12:32:30;;;;;;;9.18;1.48;;;;;;;;;;4994220;28;20234;-77
2023/09/24 12:34:56;;;;;;;6.70;1.58;;;;;;;;;;4992830;28;20186;-77
2023/09/24 12:37:21;;;;;;;6.72;1.52;;;20.70;99.90;;;;;;4993513;28;20255;-77
2023/09/24 12:39:48;;;;;;;8.27;1.63;;;20.80;99.90;;;;;;4994945;28;20179;-76
2023/09/24 12:42:14;;;;;;;4.20;1.20;;;21.20;99.90;;;;;;4993778;28;20709;-78
2023/09/24 12:44:40;;;;;;;6.03;1.48;;;;;;;;;;4994321;28;20185;-76
2023/09/24 12:47:06;;;;;;;12.48;1.70;;;;;;;;;;4993883;28;20282;-77
2023/09/24 12:49:32;;;;;;;6.10;1.55;;;;;;;;;;4990922;28;20698;-77
2023/09/24 12:51:57;;;;;;;8.45;1.60;;;20.90;18.10;;;;;;4990448;28;20265;-76
2023/09/24 12:54:24;;;;;;;6.70;1.67;;;;;;;;;;4993781;28;20179;-78
2023/09/24 12:56:50;;;;;;;9.23;1.63;;;20.50;1.00;;;;;;4993418;28;20198;-76
2023/09/24 12:59:16;;;;;;;8.60;1.30;;;20.50;49.70;;;;;;4993395;28;20233;-78
2023/09/24 13:01:42;;;;;;;10.25;1.38;;;20.60;1.00;;;;;;4993566;28;20245;-78
2023/09/24 13:04:07;;;;;;;10.05;1.75;;;20.70;1.00;;;;;;4992504;28;20262;-76